Time;durP1;ratioP1;P1;durP2;ratioP2;P2;SDS_P1;SDS_P2;PMS_P1;PMS_P2;Temp;Humidity;BMP_temperature;BMP_pressure;BME280_temperature;BME280_humidity;BME280_pressure;Samples;Min_cycle;Max_cycle;Signal;HPM_P1;HPM_P2
2022/06/26 00:00:08;;;;;;;11.65;10.50;;;18.20;99.90;;;;;;5011217;28;20047;-74
2022/06/26 00:02:35;;;;;;;12.45;11.15;;;18.10;99.90;;;;;;5004614;28;20431;-74
2022/06/26 00:05:01;;;;;;;14.73;12.60;;;18.10;99.90;;;;;;4998546;28;20104;-76
2022/06/26 00:07:27;;;;;;;13.18;11.88;;;18.00;99.90;;;;;;5021935;28;20077;-75
2022/06/26 00:09:53;;;;;;;12.60;11.40;;;18.00;99.90;;;;;;5003819;28;20165;-76
2022/06/26 00:12:20;;;;;;;13.50;11.27;;;18.00;99.90;;;;;;5010947;28;20048;-76
2022/06/26 00:14:46;;;;;;;12.68;11.48;;;18.00;99.90;;;;;;4990807;28;20045;-76
2022/06/26 00:17:12;;;;;;;12.40;11.23;;;18.00;99.90;;;;;;4966502;28;20673;-76
2022/06/26 00:19:38;;;;;;;12.70;11.50;;;18.00;99.90;;;;;;5024204;28;20048;-76
2022/06/26 00:22:06;;;;;;;11.75;10.73;;;18.00;99.90;;;;;;4996302;28;20080;-76
2022/06/26 00:24:33;;;;;;;12.18;10.85;;;18.00;99.90;;;;;;4987911;28;20079;-76
2022/06/26 00:27:00;;;;;;;13.70;11.88;;;18.00;99.90;;;;;;5013951;28;20484;-76
2022/06/26 00:29:26;;;;;;;15.05;11.18;;;18.00;99.90;;;;;;4989819;28;20063;-76
2022/06/26 00:31:52;;;;;;;13.50;12.15;;;18.00;99.90;;;;;;4954392;28;20936;-76
2022/06/26 00:34:18;;;;;;;13.88;12.45;;;18.00;99.90;;;;;;4958023;28;20037;-76
2022/06/26 00:36:44;;;;;;;12.80;11.70;;;18.00;99.90;;;;;;4993036;28;20773;-76
2022/06/26 00:39:11;;;;;;;13.63;12.32;;;18.00;99.90;;;;;;5020022;28;20118;-76
2022/06/26 00:41:38;;;;;;;13.07;12.02;;;18.00;99.90;;;;;;4976509;28;20049;-76
2022/06/26 00:44:19;;;;;;;14.07;11.52;;;18.10;99.90;;;;;;4975705;28;20045;-76
2022/06/26 00:46:45;;;;;;;12.60;11.50;;;18.10;99.90;;;;;;5020420;28;20073;-76
2022/06/26 00:49:12;;;;;;;13.05;11.75;;;18.10;99.90;;;;;;4994450;28;20049;-76
2022/06/26 00:51:43;;;;;;;12.73;11.73;;;18.20;99.90;;;;;;5031987;28;20126;-76
2022/06/26 00:54:10;;;;;;;12.23;10.85;;;18.20;99.90;;;;;;5012242;28;20363;-76
2022/06/26 00:56:38;;;;;;;13.48;11.93;;;18.20;99.90;;;;;;5013350;28;20516;-76
2022/06/26 00:59:07;;;;;;;13.70;12.32;;;18.30;99.90;;;;;;5015775;28;20044;-76
2022/06/26 01:01:36;;;;;;;12.80;11.60;;;18.30;99.90;;;;;;4977668;28;20045;-76
2022/06/26 01:04:03;;;;;;;13.00;11.75;;;18.30;99.90;;;;;;4996060;28;20128;-76
2022/06/26 01:06:31;;;;;;;14.77;13.38;;;18.30;99.90;;;;;;4975072;28;20505;-76
2022/06/26 01:08:58;;;;;;;16.30;14.77;;;18.20;99.90;;;;;;4985954;28;20044;-76
2022/06/26 01:11:25;;;;;;;18.58;16.77;;;18.10;99.90;;;;;;5009714;28;20052;-76
2022/06/26 01:13:54;;;;;;;18.52;16.60;;;18.10;99.90;;;;;;4988339;28;20088;-76
2022/06/26 01:16:21;;;;;;;18.35;16.80;;;18.20;99.90;;;;;;5015624;28;20080;-76
2022/06/26 01:18:51;;;;;;;18.38;16.73;;;18.20;99.90;;;;;;4983691;28;20095;-76
2022/06/26 01:21:19;;;;;;;19.80;17.85;;;18.30;99.90;;;;;;4994147;28;20083;-76
2022/06/26 01:23:47;;;;;;;18.45;16.73;;;18.40;99.90;;;;;;4991820;28;20132;-76
2022/06/26 01:26:16;;;;;;;18.48;16.85;;;18.50;99.90;;;;;;4998820;28;20049;-75
2022/06/26 01:28:42;;;;;;;18.85;17.08;;;18.50;99.90;;;;;;5035650;28;20041;-75
2022/06/26 01:31:12;;;;;;;17.80;16.10;;;18.60;99.90;;;;;;4979008;28;20059;-75
2022/06/26 01:33:39;;;;;;;18.52;16.95;;;18.60;99.90;;;;;;5015804;28;20599;-76
2022/06/26 01:36:06;;;;;;;17.60;16.08;;;18.60;99.90;;;;;;4981485;28;20144;-75
2022/06/26 01:38:33;;;;;;;17.40;15.65;;;18.60;99.90;;;;;;5010688;28;20352;-75
2022/06/26 01:41:00;;;;;;;18.55;16.75;;;18.60;99.90;;;;;;5011701;28;20091;-75
2022/06/26 01:43:29;;;;;;;17.80;16.17;;;18.50;99.90;;;;;;5008772;28;20053;-75
2022/06/26 01:45:57;;;;;;;18.23;16.40;;;18.50;99.90;;;;;;4991569;28;20076;-75
2022/06/26 01:48:30;;;;;;;18.35;16.65;;;18.50;99.90;;;;;;4994240;28;20053;-75
2022/06/26 01:50:58;;;;;;;18.90;16.52;;;18.50;99.90;;;;;;4992190;28;20051;-75
2022/06/26 01:53:25;;;;;;;18.52;16.73;;;18.50;99.90;;;;;;5010600;28;20289;-75
2022/06/26 01:55:51;;;;;;;18.25;16.50;;;18.50;99.90;;;;;;5005624;28;20049;-76
2022/06/26 01:58:24;;;;;;;18.05;16.48;;;18.50;99.90;;;;;;4983463;28;20048;-75
2022/06/26 02:00:53;;;;;;;23.50;18.50;;;18.50;99.90;;;;;;5012551;28;20060;-76
2022/06/26 02:03:25;;;;;;;22.98;19.15;;;18.40;99.90;;;;;;5004526;28;20053;-76
2022/06/26 02:05:51;;;;;;;23.38;20.75;;;18.30;99.90;;;;;;5022798;28;20435;-76
2022/06/26 02:08:19;;;;;;;23.50;21.05;;;18.30;99.90;;;;;;4991873;28;20474;-76
2022/06/26 02:13:36;;;;;;;28.65;24.50;;;18.20;99.90;;;;;;5004076;28;20049;-76
2022/06/26 02:16:09;;;;;;;27.02;24.05;;;18.10;99.90;;;;;;4984522;28;20049;-75
2022/06/26 02:18:36;;;;;;;28.75;25.70;;;18.10;99.90;;;;;;5031800;28;21506;-76
2022/06/26 02:21:12;;;;;;;26.50;23.77;;;18.00;99.90;;;;;;5014049;28;20699;-76
2022/06/26 02:23:42;;;;;;;31.15;27.85;;;17.90;99.90;;;;;;4976702;28;20160;-74
2022/06/26 02:26:09;;;;;;;30.02;27.02;;;17.90;99.90;;;;;;4980939;28;20045;-76
2022/06/26 02:28:40;;;;;;;38.38;33.47;;;17.90;99.90;;;;;;4992386;28;20083;-76
2022/06/26 02:31:06;;;;;;;34.88;31.27;;;17.90;99.90;;;;;;4990949;28;20041;-75
2022/06/26 02:33:34;;;;;;;34.92;31.38;;;17.90;99.90;;;;;;5023043;28;20742;-75
2022/06/26 02:36:01;;;;;;;30.40;27.35;;;17.90;99.90;;;;;;4970383;28;20056;-76
2022/06/26 02:38:28;;;;;;;30.58;27.38;;;17.80;99.90;;;;;;5011790;28;20543;-76
2022/06/26 02:40:54;;;;;;;27.10;24.33;;;17.80;99.90;;;;;;4989862;28;20152;-76
2022/06/26 02:43:23;;;;;;;26.20;23.42;;;17.80;99.90;;;;;;5029290;28;20051;-75
2022/06/26 02:45:50;;;;;;;29.23;26.33;;;17.80;99.90;;;;;;5019159;28;20128;-75
2022/06/26 02:48:17;;;;;;;26.13;23.73;;;17.80;99.90;;;;;;4985090;28;20045;-76
2022/06/26 02:50:47;;;;;;;26.67;23.88;;;17.70;99.90;;;;;;5017243;28;20136;-76
2022/06/26 02:53:15;;;;;;;21.45;19.48;;;17.70;99.90;;;;;;5013407;28;20094;-76
2022/06/26 02:55:42;;;;;;;20.45;18.55;;;17.70;99.90;;;;;;4989202;28;20045;-75
2022/06/26 02:58:10;;;;;;;19.88;17.88;;;17.70;99.90;;;;;;5015494;28;20050;-75
2022/06/26 03:00:41;;;;;;;23.45;19.33;;;17.60;99.90;;;;;;4957860;28;20041;-75
2022/06/26 03:03:10;;;;;;;20.08;17.98;;;17.50;99.90;;;;;;4992408;28;20605;-75
2022/06/26 03:05:37;;;;;;;20.27;18.15;;;17.50;99.90;;;;;;4976028;28;20124;-76
2022/06/26 03:08:06;;;;;;;19.45;17.63;;;17.40;99.90;;;;;;4975515;28;20045;-77
2022/06/26 03:10:32;;;;;;;20.35;18.23;;;17.40;99.90;;;;;;4975760;28;20768;-75
2022/06/26 03:13:01;;;;;;;20.67;18.40;;;17.40;99.90;;;;;;4998602;28;20103;-75
2022/06/26 03:15:28;;;;;;;17.98;16.38;;;17.30;99.90;;;;;;4956749;28;20045;-76
2022/06/26 03:17:57;;;;;;;18.73;16.85;;;17.20;99.90;;;;;;4991240;28;20128;-75
2022/06/26 03:20:23;;;;;;;18.63;16.73;;;17.20;99.90;;;;;;5008941;28;20057;-76
2022/06/26 03:22:50;;;;;;;18.25;16.35;;;17.20;99.90;;;;;;5007799;28;20049;-76
2022/06/26 03:25:18;;;;;;;18.90;16.98;;;17.10;99.90;;;;;;4994790;28;20053;-76
2022/06/26 03:27:44;;;;;;;19.70;17.67;;;17.10;99.90;;;;;;5012319;28;20073;-76
2022/06/26 03:30:14;;;;;;;18.40;16.52;;;17.10;99.90;;;;;;4985058;28;20106;-76
2022/06/26 03:32:47;;;;;;;17.63;15.88;;;17.00;99.90;;;;;;4996072;28;20470;-76
2022/06/26 03:35:13;;;;;;;16.73;14.98;;;17.00;99.90;;;;;;4995258;28;20044;-76
2022/06/26 03:37:40;;;;;;;18.10;15.38;;;16.90;99.90;;;;;;5022106;28;20387;-76
2022/06/26 03:40:07;;;;;;;15.60;13.80;;;16.90;99.90;;;;;;4974481;28;20068;-76
2022/06/26 03:42:34;;;;;;;15.07;13.45;;;16.90;99.90;;;;;;4993660;28;20045;-76
2022/06/26 03:45:00;;;;;;;15.52;13.27;;;16.90;99.90;;;;;;5005398;28;20540;-76
2022/06/26 03:47:26;;;;;;;15.00;13.52;;;16.90;99.90;;;;;;5019700;28;20375;-76
2022/06/26 03:49:54;;;;;;;14.48;12.85;;;16.90;99.90;;;;;;4987542;28;20684;-76
2022/06/26 03:52:23;;;;;;;14.65;12.48;;;16.80;99.90;;;;;;4989992;28;20046;-76
2022/06/26 03:54:53;;;;;;;16.65;13.65;;;16.80;99.90;;;;;;4990013;28;20104;-75
2022/06/26 03:57:22;;;;;;;14.38;11.95;;;16.80;99.90;;;;;;4993588;28;20116;-76
2022/06/26 03:59:50;;;;;;;13.77;12.38;;;16.80;99.90;;;;;;4986475;28;20139;-76
2022/06/26 04:02:25;;;;;;;15.40;12.15;;;16.70;99.90;;;;;;4986014;28;20104;-76
2022/06/26 04:04:51;;;;;;;13.82;11.50;;;16.70;99.90;;;;;;4974206;28;20128;-77
2022/06/26 04:07:18;;;;;;;13.85;11.30;;;16.70;99.90;;;;;;5031154;28;20045;-76
2022/06/26 04:09:47;;;;;;;13.73;11.68;;;16.60;99.90;;;;;;4995814;28;20045;-76
2022/06/26 04:12:19;;;;;;;10.82;9.60;;;16.60;99.90;;;;;;5014445;28;20132;-78
2022/06/26 04:14:46;;;;;;;10.82;9.70;;;16.60;99.90;;;;;;4987311;28;20067;-76
2022/06/26 04:17:17;;;;;;;12.32;9.52;;;16.50;99.90;;;;;;4972920;28;20048;-76
2022/06/26 04:19:54;;;;;;;12.25;9.52;;;16.50;99.90;;;;;;4995845;28;20096;-76
2022/06/26 04:22:20;;;;;;;11.43;9.25;;;16.50;99.90;;;;;;4968469;28;20048;-76
2022/06/26 04:24:47;;;;;;;10.05;8.70;;;16.50;99.90;;;;;;5002464;28;20041;-76
2022/06/26 04:27:18;;;;;;;10.93;9.82;;;16.50;99.90;;;;;;4976186;28;20052;-76
2022/06/26 04:29:44;;;;;;;10.18;8.68;;;16.50;99.90;;;;;;4979276;28;20053;-76
2022/06/26 04:32:12;;;;;;;11.73;9.80;;;16.50;99.90;;;;;;4986739;28;20099;-76
2022/06/26 04:34:41;;;;;;;10.70;9.00;;;16.50;99.90;;;;;;5002940;28;20048;-77
2022/06/26 04:37:08;;;;;;;11.48;9.10;;;16.50;99.90;;;;;;4945349;28;20261;-75
2022/06/26 04:39:34;;;;;;;9.07;8.13;;;16.50;99.90;;;;;;4998482;28;20060;-76
2022/06/26 04:42:04;;;;;;;11.93;9.93;;;16.50;99.90;;;;;;4975350;28;20292;-76
2022/06/26 04:44:33;;;;;;;9.98;9.10;;;16.50;99.90;;;;;;4982873;28;20863;-76
2022/06/26 04:46:59;;;;;;;10.88;9.77;;;16.50;99.90;;;;;;4993495;28;20045;-76
2022/06/26 04:49:31;;;;;;;10.07;9.15;;;16.60;99.90;;;;;;5010690;28;20132;-76
2022/06/26 04:51:57;;;;;;;10.00;8.98;;;16.60;99.90;;;;;;5001049;28;20041;-76
2022/06/26 04:54:35;;;;;;;11.63;10.43;;;16.70;99.90;;;;;;5003940;28;20045;-76
2022/06/26 04:57:02;;;;;;;11.00;10.02;;;16.80;99.90;;;;;;5003292;28;20040;-76
2022/06/26 04:59:29;;;;;;;12.40;9.88;;;16.80;99.90;;;;;;4999808;28;20037;-76
2022/06/26 05:02:02;;;;;;;10.95;9.85;;;16.90;99.90;;;;;;5011368;28;20084;-77
2022/06/26 05:04:47;;;;;;;10.98;9.88;;;17.10;99.90;;;;;;5003720;28;20563;-76
2022/06/26 05:07:32;;;;;;;10.27;9.38;;;17.20;99.90;;;;;;5001844;28;20151;-76
2022/06/26 05:09:58;;;;;;;10.98;9.93;;;17.30;99.90;;;;;;4980975;28;20049;-76
2022/06/26 05:12:26;;;;;;;11.18;9.73;;;17.50;99.90;;;;;;5002152;28;20170;-76
2022/06/26 05:15:24;;;;;;;10.57;9.57;;;17.70;99.90;;;;;;4976061;28;20038;-77
2022/06/26 05:17:51;;;;;;;8.60;7.72;;;17.80;99.90;;;;;;5015884;28;20051;-76
2022/06/26 05:20:18;;;;;;;9.30;8.50;;;17.90;99.90;;;;;;4965435;28;20084;-76
2022/06/26 05:22:44;;;;;;;9.85;8.85;;;17.90;99.90;;;;;;4990888;28;20109;-76
2022/06/26 05:25:11;;;;;;;11.65;9.88;;;17.90;99.90;;;;;;5025058;28;20084;-76
2022/06/26 05:27:38;;;;;;;11.48;10.38;;;17.80;99.90;;;;;;4987804;28;20065;-77
2022/06/26 05:30:05;;;;;;;12.57;11.38;;;17.80;99.90;;;;;;4991446;28;20049;-77
2022/06/26 05:32:37;;;;;;;13.68;12.45;;;17.80;99.90;;;;;;4977862;28;20057;-77
2022/06/26 05:35:08;;;;;;;13.32;11.93;;;17.70;99.90;;;;;;5004172;28;20049;-76
2022/06/26 05:37:34;;;;;;;15.15;13.73;;;17.70;99.90;;;;;;5025097;28;20395;-77
2022/06/26 05:40:04;;;;;;;17.58;15.93;;;17.60;99.90;;;;;;4978756;28;20463;-77
2022/06/26 05:42:35;;;;;;;16.67;15.23;;;17.60;99.90;;;;;;5012232;28;20046;-77
2022/06/26 05:45:06;;;;;;;18.85;17.00;;;17.70;99.90;;;;;;5016732;28;20053;-78
2022/06/26 05:47:33;;;;;;;18.60;16.80;;;17.60;99.90;;;;;;4947436;28;20209;-77
2022/06/26 05:50:25;;;;;;;16.98;15.27;;;17.60;99.90;;;;;;5024605;28;20048;-76
2022/06/26 05:53:18;;;;;;;17.02;15.45;;;17.70;99.90;;;;;;4974107;28;20077;-77
2022/06/26 05:56:03;;;;;;;14.90;13.38;;;17.70;99.90;;;;;;5005458;28;20049;-77
2022/06/26 05:58:36;;;;;;;15.55;14.00;;;17.60;99.90;;;;;;5014516;28;20045;-77
2022/06/26 06:01:23;;;;;;;16.50;14.73;;;17.70;99.90;;;;;;4994259;28;20663;-76
2022/06/26 06:03:54;;;;;;;;;;;17.70;99.90;;;;;;4977401;28;20042;-76
2022/06/26 06:06:21;;;;;;;15.60;14.10;;;17.80;99.90;;;;;;4989303;28;19976;-78
2022/06/26 06:08:48;;;;;;;16.00;14.50;;;17.90;99.90;;;;;;4989356;28;20029;-78
2022/06/26 06:11:15;;;;;;;14.70;13.40;;;18.00;99.90;;;;;;4982828;28;20050;-78
2022/06/26 06:13:41;;;;;;;15.75;14.25;;;18.10;99.90;;;;;;4984700;28;20057;-77
2022/06/26 06:16:08;;;;;;;15.52;14.10;;;18.20;99.90;;;;;;4988324;28;20038;-77
2022/06/26 06:18:34;;;;;;;14.50;13.02;;;18.30;99.90;;;;;;5000426;28;20056;-75
2022/06/26 06:21:01;;;;;;;16.38;14.68;;;18.50;99.90;;;;;;4982294;28;20057;-77
2022/06/26 06:23:28;;;;;;;16.13;14.63;;;18.60;99.90;;;;;;4978639;28;20574;-77
2022/06/26 06:25:54;;;;;;;16.55;14.93;;;18.60;99.90;;;;;;4952286;28;20042;-77
2022/06/26 06:28:20;;;;;;;15.02;13.60;;;18.60;99.90;;;;;;5004602;28;20050;-77
2022/06/26 06:30:47;;;;;;;15.80;14.45;;;18.60;99.90;;;;;;4999652;28;20053;-77
2022/06/26 06:33:19;;;;;;;16.50;14.90;;;18.60;99.90;;;;;;4970073;28;20044;-77
2022/06/26 06:35:48;;;;;;;17.55;15.85;;;18.60;99.90;;;;;;5002109;28;20046;-77
2022/06/26 06:38:15;;;;;;;16.45;14.90;;;18.50;99.90;;;;;;5003325;28;20045;-77
2022/06/26 06:40:48;;;;;;;17.08;15.60;;;18.50;99.90;;;;;;5007659;28;20053;-77
2022/06/26 06:43:20;;;;;;;15.30;13.80;;;18.40;99.90;;;;;;5010737;28;20109;-77
2022/06/26 06:46:18;;;;;;;14.85;13.55;;;18.40;99.90;;;;;;4943841;28;20049;-77
2022/06/26 06:48:57;;;;;;;15.73;14.32;;;18.50;99.90;;;;;;4941074;28;20121;-76
2022/06/26 06:51:28;;;;;;;16.42;15.00;;;18.50;99.90;;;;;;4991784;28;20179;-77
2022/06/26 06:53:55;;;;;;;16.30;14.85;;;18.60;99.90;;;;;;4974254;28;20042;-77
2022/06/26 06:56:21;;;;;;;16.95;15.45;;;18.80;99.90;;;;;;4990533;28;20117;-76
2022/06/26 06:58:48;;;;;;;17.30;15.70;;;18.90;99.90;;;;;;4987557;28;20118;-77
2022/06/26 07:01:15;;;;;;;18.48;16.98;;;18.90;99.90;;;;;;4969655;28;20049;-78
2022/06/26 07:03:41;;;;;;;18.17;16.67;;;18.90;99.90;;;;;;4991654;28;20042;-77
2022/06/26 07:06:07;;;;;;;19.27;17.58;;;18.90;99.90;;;;;;4969190;28;20052;-77
2022/06/26 07:08:34;;;;;;;18.15;16.50;;;19.00;99.90;;;;;;4994606;28;20040;-78
2022/06/26 07:11:01;;;;;;;20.58;18.52;;;19.10;99.90;;;;;;5003839;28;20107;-77
2022/06/26 07:13:30;;;;;;;19.80;18.02;;;19.10;99.90;;;;;;5002067;28;20650;-77
2022/06/26 07:15:57;;;;;;;20.83;18.95;;;19.00;99.90;;;;;;5001594;28;20041;-78
2022/06/26 07:18:25;;;;;;;21.83;19.80;;;19.00;99.90;;;;;;4990827;28;20141;-77
2022/06/26 07:20:54;;;;;;;22.77;20.58;;;19.10;99.90;;;;;;5008831;28;20059;-77
2022/06/26 07:23:20;;;;;;;21.88;20.08;;;19.40;99.90;;;;;;4998315;28;20051;-77
2022/06/26 07:25:55;;;;;;;20.48;18.58;;;19.90;99.90;;;;;;4966077;28;20100;-77
2022/06/26 07:28:28;;;;;;;20.52;18.77;;;20.40;99.90;;;;;;4987014;28;20037;-77
2022/06/26 07:30:54;;;;;;;20.27;18.48;;;20.40;99.90;;;;;;4952544;28;20385;-78
2022/06/26 07:36:05;;;;;;;20.55;18.58;;;21.00;99.90;;;;;;4958055;28;20077;-77
2022/06/26 07:38:32;;;;;;;19.90;18.20;;;21.30;99.90;;;;;;4988943;28;20048;-77
2022/06/26 07:40:58;;;;;;;19.83;18.10;;;21.30;99.90;;;;;;5001251;28;20057;-78
2022/06/26 07:43:26;;;;;;;19.33;17.65;;;21.40;99.90;;;;;;4992453;28;20597;-77
2022/06/26 07:45:52;;;;;;;18.90;17.05;;;21.30;99.90;;;;;;5008690;28;20083;-78
2022/06/26 07:48:20;;;;;;;17.48;15.88;;;21.30;99.90;;;;;;5006838;28;20777;-77
2022/06/26 07:50:47;;;;;;;17.40;15.80;;;21.90;99.90;;;;;;5007124;28;20632;-77
2022/06/26 07:53:15;;;;;;;16.10;14.57;;;21.70;99.90;;;;;;5029924;28;20060;-78
2022/06/26 07:55:42;;;;;;;16.92;15.43;;;21.80;99.90;;;;;;4975152;28;20041;-78
2022/06/26 07:58:11;;;;;;;16.92;15.30;;;22.30;99.90;;;;;;5007515;28;20103;-77
2022/06/26 08:00:37;;;;;;;16.33;14.73;;;22.40;99.90;;;;;;4991848;28;20048;-78
2022/06/26 08:03:05;;;;;;;14.18;12.80;;;22.30;99.90;;;;;;4983781;28;20056;-77
2022/06/26 08:05:32;;;;;;;13.65;12.20;;;22.80;99.90;;;;;;5019973;28;20520;-78
2022/06/26 08:07:58;;;;;;;12.68;11.50;;;22.70;99.90;;;;;;4984043;28;20042;-77
2022/06/26 08:10:25;;;;;;;12.45;11.35;;;22.60;99.90;;;;;;4990774;28;20540;-78
2022/06/26 08:12:51;;;;;;;13.57;12.18;;;22.50;99.90;;;;;;4973917;28;20049;-77
2022/06/26 08:15:17;;;;;;;13.02;11.65;;;22.20;99.90;;;;;;4988478;28;20049;-78
2022/06/26 08:17:44;;;;;;;12.63;11.52;;;21.70;99.90;;;;;;4985878;28;20076;-77
2022/06/26 08:20:11;;;;;;;12.32;11.00;;;21.70;99.90;;;;;;4969070;28;20236;-77
2022/06/26 08:22:37;;;;;;;10.23;9.18;;;22.00;99.90;;;;;;4999006;28;20561;-77
2022/06/26 08:25:04;;;;;;;10.43;9.43;;;22.00;99.90;;;;;;4978073;28;20095;-77
2022/06/26 08:27:30;;;;;;;8.40;7.60;;;22.40;99.90;;;;;;5006166;28;20509;-77
2022/06/26 08:29:59;;;;;;;10.40;9.35;;;22.90;99.90;;;;;;4981043;28;20485;-77
2022/06/26 08:32:26;;;;;;;9.40;6.90;;;23.10;99.90;;;;;;5025832;28;20049;-77
2022/06/26 08:34:52;;;;;;;8.32;5.80;;;23.40;99.90;;;;;;4999146;28;20557;-77
2022/06/26 08:37:19;;;;;;;7.43;6.57;;;23.70;99.90;;;;;;4985920;28;20049;-77
2022/06/26 08:39:46;;;;;;;9.05;7.72;;;23.60;99.90;;;;;;5038265;28;20049;-78
2022/06/26 08:42:17;;;;;;;8.90;7.03;;;23.50;99.90;;;;;;4971924;28;20115;-78
2022/06/26 08:44:45;;;;;;;6.68;5.90;;;22.90;99.90;;;;;;4971199;28;20064;-77
2022/06/26 08:47:12;;;;;;;8.32;6.00;;;22.60;99.90;;;;;;5009195;28;20563;-77
2022/06/26 08:49:41;;;;;;;6.13;5.10;;;22.30;99.90;;;;;;5013472;28;20053;-77
2022/06/26 08:52:10;;;;;;;5.82;4.35;;;22.50;99.90;;;;;;5009386;28;20072;-77
2022/06/26 08:54:37;;;;;;;6.30;5.03;;;22.60;99.90;;;;;;4967318;28;20531;-77
2022/06/26 08:57:04;;;;;;;7.05;4.68;;;22.70;99.90;;;;;;5029580;28;20394;-77
2022/06/26 08:59:31;;;;;;;5.72;3.65;;;22.50;99.90;;;;;;5004318;28;20045;-78
2022/06/26 09:02:03;;;;;;;11.73;9.10;;;22.40;99.90;;;;;;4980835;28;20112;-79
2022/06/26 09:04:36;;;;;;;8.55;4.90;;;22.90;99.90;;;;;;5008621;28;20046;-79
2022/06/26 09:07:27;;;;;;;6.50;4.63;;;23.10;99.90;;;;;;5020387;28;20364;-83
2022/06/26 09:09:53;;;;;;;11.70;10.50;;;23.50;99.90;;;;;;5009480;28;20124;-82
2022/06/26 09:12:35;;;;;;;11.10;7.57;;;23.60;99.90;;;;;;5010690;28;20049;-82
2022/06/26 09:15:03;;;;;;;8.93;6.90;;;24.00;99.90;;;;;;5028710;28;20508;-79
2022/06/26 09:17:30;;;;;;;10.38;8.82;;;23.90;99.90;;;;;;5022050;28;20056;-79
2022/06/26 09:19:56;;;;;;;9.13;7.38;;;24.30;99.90;;;;;;4988968;28;20056;-79
2022/06/26 09:22:23;;;;;;;6.30;2.78;;;24.50;99.90;;;;;;5020637;28;20041;-78
2022/06/26 09:24:56;;;;;;;4.75;3.50;;;24.50;99.90;;;;;;5008925;28;20135;-78
2022/06/26 09:27:23;;;;;;;5.07;2.95;;;24.50;99.90;;;;;;5016417;28;20057;-78
2022/06/26 09:29:52;;;;;;;5.93;3.22;;;24.70;99.90;;;;;;5040423;28;20428;-78
2022/06/26 09:32:22;;;;;;;3.15;2.30;;;24.50;99.90;;;;;;5014908;28;20048;-79
2022/06/26 09:34:53;;;;;;;3.40;2.65;;;24.50;99.90;;;;;;5009600;28;20114;-77
2022/06/26 09:37:23;;;;;;;5.38;2.80;;;24.40;99.90;;;;;;4999186;28;20037;-78
2022/06/26 09:40:00;;;;;;;4.53;3.05;;;24.80;99.90;;;;;;4971794;28;20041;-79
2022/06/26 09:42:27;;;;;;;5.50;3.65;;;24.80;99.90;;;;;;5045265;28;20084;-80
2022/06/26 09:44:55;;;;;;;4.72;3.22;;;24.30;99.90;;;;;;4985979;28;20072;-79
2022/06/26 09:47:30;;;;;;;5.38;3.35;;;24.50;99.90;;;;;;5023561;28;20100;-80
2022/06/26 09:50:02;;;;;;;4.90;3.00;;;24.90;99.90;;;;;;4992158;28;20053;-80
2022/06/26 09:52:30;;;;;;;5.07;3.17;;;25.10;99.90;;;;;;5022249;28;20458;-80
2022/06/26 09:55:00;;;;;;;5.53;4.72;;;24.70;99.90;;;;;;4997519;28;20056;-80
2022/06/26 09:57:27;;;;;;;6.53;3.92;;;24.30;99.90;;;;;;4988269;28;20038;-79
2022/06/26 09:59:59;;;;;;;6.18;3.40;;;23.90;99.90;;;;;;5001545;28;20117;-79
2022/06/26 10:08:08;;;;;;;4.28;2.45;;;24.00;99.90;;;;;;4971734;28;20053;-79
2022/06/26 10:10:35;;;;;;;3.30;2.10;;;24.20;99.90;;;;;;5003231;28;20497;-81
2022/06/26 10:13:10;;;;;;;4.30;2.45;;;24.90;99.90;;;;;;5012226;28;20601;-80
2022/06/26 10:16:04;;;;;;;4.72;2.50;;;25.80;99.90;;;;;;5135147;27;20191;-61
2022/06/26 10:18:40;;;;;;;;;;;25.90;99.90;;;;;;5128083;27;20477;-59
2022/06/26 10:21:09;;;;;;;3.75;2.03;;;25.90;99.90;;;;;;5128977;27;19957;-60
2022/06/26 10:23:40;;;;;;;4.30;2.67;;;26.30;99.90;;;;;;5133162;27;20042;-59
2022/06/26 10:26:16;;;;;;;4.63;2.67;;;26.00;99.90;;;;;;5114615;27;20126;-61
2022/06/26 10:29:03;;;;;;;4.00;2.45;;;25.80;98.90;;;;;;5161866;27;20460;-60
2022/06/26 10:31:49;;;;;;;6.20;3.17;;;25.50;98.00;;;;;;5128535;27;20043;-61
2022/06/26 10:34:25;;;;;;;28.77;26.13;;;25.20;99.90;;;;;;5111309;27;20547;-60
2022/06/26 10:37:02;;;;;;;4.50;2.50;;;24.90;99.90;;;;;;5111281;27;20149;-60
2022/06/26 10:39:49;;;;;;;5.15;2.78;;;24.50;99.90;;;;;;5127054;27;20061;-62
2022/06/26 10:45:28;;;;;;;6.82;4.47;;;24.10;99.90;;;;;;5137882;27;20055;-59
2022/06/26 10:47:56;;;;;;;4.53;3.20;;;24.20;99.90;;;;;;5127925;27;20047;-59
2022/06/26 10:50:26;;;;;;;5.50;2.90;;;24.00;99.90;;;;;;5131984;27;20139;-59
2022/06/26 10:52:53;;;;;;;9.05;5.97;;;24.10;99.90;;;;;;5133594;27;20129;-62
2022/06/26 10:55:20;;;;;;;5.63;3.67;;;24.20;99.90;;;;;;5146828;27;20065;-59
2022/06/26 10:57:47;;;;;;;4.88;2.97;;;24.10;99.90;;;;;;5115599;27;20042;-62
2022/06/26 11:00:16;;;;;;;5.43;2.88;;;24.20;99.90;;;;;;5124635;27;20529;-62
2022/06/26 11:02:45;;;;;;;5.60;2.97;;;24.20;99.90;;;;;;5119721;27;20039;-62
2022/06/26 11:05:13;;;;;;;7.00;3.35;;;24.20;99.90;;;;;;5110548;27;20507;-61
2022/06/26 11:07:48;;;;;;;5.32;3.08;;;24.30;99.90;;;;;;5127168;27;20058;-60
2022/06/26 11:10:22;;;;;;;4.53;2.92;;;24.60;99.90;;;;;;5122841;27;20039;-60
2022/06/26 11:12:50;;;;;;;6.40;2.88;;;25.20;99.90;;;;;;5133256;27;20409;-62
2022/06/26 11:15:20;;;;;;;5.95;3.13;;;25.40;99.90;;;;;;5127727;27;20475;-62
2022/06/26 11:18:06;;;;;;;5.30;2.90;;;25.50;99.90;;;;;;5107206;27;20034;-62
2022/06/26 11:20:49;;;;;;;4.82;2.70;;;25.70;99.90;;;;;;5163795;27;20073;-59
2022/06/26 11:23:16;;;;;;;6.25;3.00;;;25.80;99.90;;;;;;5129522;27;20509;-59
2022/06/26 11:25:42;;;;;;;5.75;2.50;;;26.00;99.90;;;;;;5127027;27;20039;-58
2022/06/26 11:28:10;;;;;;;5.00;2.55;;;26.20;99.90;;;;;;5116641;27;20376;-59
2022/06/26 11:30:41;;;;;;;5.15;2.25;;;26.20;99.90;;;;;;5124524;27;20115;-59
2022/06/26 11:33:08;;;;;;;;;;;26.20;99.90;;;;;;5118856;27;20043;-59
2022/06/26 11:35:35;;;;;;;4.10;2.47;;;26.10;99.40;;;;;;5120486;27;19927;-59
2022/06/26 11:38:15;;;;;;;4.95;3.13;;;26.50;99.90;;;;;;5119179;27;20501;-59
2022/06/26 11:40:43;;;;;;;5.68;2.55;;;26.40;98.60;;;;;;5115120;27;20431;-61
2022/06/26 11:43:11;;;;;;;4.80;2.28;;;26.20;99.40;;;;;;5117896;27;20034;-59
2022/06/26 11:45:40;;;;;;;5.03;2.50;;;26.10;99.90;;;;;;5111193;27;20094;-60
2022/06/26 11:48:16;;;;;;;5.40;2.47;;;25.90;97.10;;;;;;5108585;27;20055;-60
2022/06/26 11:50:54;;;;;;;5.05;2.55;;;25.60;99.70;;;;;;5107990;27;20050;-60
2022/06/26 11:53:21;;;;;;;4.93;2.38;;;25.60;99.60;;;;;;5093021;27;20047;-60
2022/06/26 11:55:53;;;;;;;4.43;2.92;;;25.40;99.90;;;;;;5094902;27;20051;-59
2022/06/26 11:58:25;;;;;;;4.50;3.10;;;25.40;99.90;;;;;;5084542;28;20490;-63
2022/06/26 12:01:13;;;;;;;6.13;2.88;;;25.50;99.00;;;;;;5105104;27;20489;-61
2022/06/26 12:03:51;;;;;;;5.82;2.95;;;25.50;99.90;;;;;;5093913;27;20425;-62
2022/06/26 12:06:39;;;;;;;6.47;3.20;;;25.30;97.40;;;;;;5119714;27;20039;-61
2022/06/26 12:09:26;;;;;;;6.18;2.65;;;25.40;99.30;;;;;;5117697;27;20054;-61
2022/06/26 12:11:54;;;;;;;5.15;2.65;;;25.00;98.20;;;;;;5114517;27;20035;-61
2022/06/26 12:14:24;;;;;;;5.18;3.15;;;25.10;99.90;;;;;;5116582;27;20055;-61
2022/06/26 12:16:56;;;;;;;5.82;3.00;;;25.30;99.90;;;;;;5140250;27;20168;-61
2022/06/26 12:19:24;;;;;;;6.25;2.78;;;25.50;99.90;;;;;;5106562;27;20055;-61
2022/06/26 12:21:54;;;;;;;16.52;11.98;;;25.50;99.90;;;;;;5112845;27;20445;-62
2022/06/26 12:24:21;;;;;;;49.85;44.92;;;25.20;99.90;;;;;;5107711;27;20086;-61
2022/06/26 12:26:48;;;;;;;10.23;7.43;;;24.90;99.90;;;;;;5107874;27;20048;-61
2022/06/26 12:29:16;;;;;;;5.88;3.25;;;24.80;99.90;;;;;;5110318;27;20113;-61
2022/06/26 12:31:44;;;;;;;5.70;3.15;;;24.70;99.90;;;;;;5110162;27;20046;-62
2022/06/26 12:34:11;;;;;;;9.48;4.03;;;24.80;99.90;;;;;;5113731;27;20116;-61
2022/06/26 12:36:38;;;;;;;10.63;8.73;;;24.60;99.90;;;;;;5122144;27;20116;-62
2022/06/26 12:39:11;;;;;;;10.60;7.45;;;24.30;99.90;;;;;;5113302;27;20040;-61
2022/06/26 12:41:38;;;;;;;5.70;2.58;;;24.20;99.90;;;;;;5115736;27;20447;-62
2022/06/26 12:44:05;;;;;;;6.32;3.55;;;24.20;99.90;;;;;;5131584;27;20524;-61
2022/06/26 12:46:31;;;;;;;4.75;2.55;;;24.00;99.90;;;;;;5112952;27;20044;-61
2022/06/26 12:48:59;;;;;;;4.22;2.25;;;23.90;99.90;;;;;;5110214;27;20088;-62
2022/06/26 12:51:27;;;;;;;4.25;2.20;;;23.90;99.90;;;;;;5094153;27;20500;-62
2022/06/26 12:53:53;;;;;;;36.95;32.95;;;23.90;99.90;;;;;;5098318;27;20070;-61
2022/06/26 12:56:20;;;;;;;5.38;2.80;;;23.90;99.90;;;;;;5128144;27;20156;-61
2022/06/26 12:58:46;;;;;;;5.72;3.47;;;23.90;99.90;;;;;;5108065;27;20043;-61
2022/06/26 13:01:15;;;;;;;15.15;13.60;;;23.80;99.90;;;;;;5097133;27;20515;-61